sensor_id;sensor_type;location;lat;lon;timestamp;P1;durP1;ratioP1;P2;durP2;ratioP2
55136;SDS011;41032;47.818;-3.732;2023-02-21T09:47:16;157.40;;;106.97;;
55136;SDS011;41032;47.818;-3.732;2023-02-21T09:49:53;162.27;;;111.75;;
55136;SDS011;41032;47.818;-3.732;2023-02-21T09:52:28;169.70;;;115.82;;
55136;SDS011;41032;47.818;-3.732;2023-02-21T09:55:10;174.85;;;122.85;;
55136;SDS011;41032;47.818;-3.732;2023-02-21T09:57:43;195.32;;;134.80;;
55136;SDS011;41032;47.818;-3.732;2023-02-21T10:00:15;193.55;;;135.07;;
55136;SDS011;41032;47.818;-3.732;2023-02-21T10:02:49;193.02;;;130.88;;
55136;SDS011;41032;47.818;-3.732;2023-02-21T10:05:29;215.02;;;148.65;;
55136;SDS011;41032;47.818;-3.732;2023-02-21T10:11:02;211.43;;;147.00;;
55136;SDS011;41032;47.818;-3.732;2023-02-21T10:19:06;221.48;;;159.63;;
55136;SDS011;41032;47.818;-3.732;2023-02-21T10:21:43;220.30;;;155.65;;
55136;SDS011;41032;47.818;-3.732;2023-02-21T10:24:14;231.05;;;162.05;;
55136;SDS011;41032;47.818;-3.732;2023-02-21T10:26:47;218.23;;;150.30;;
55136;SDS011;41032;47.818;-3.732;2023-02-21T10:29:33;211.43;;;153.80;;
55136;SDS011;41032;47.818;-3.732;2023-02-21T10:32:13;219.48;;;153.95;;
55136;SDS011;41032;47.818;-3.732;2023-02-21T10:34:41;215.07;;;154.93;;
55136;SDS011;41032;47.818;-3.732;2023-02-21T10:39:49;213.05;;;153.10;;
55136;SDS011;41032;47.818;-3.732;2023-02-21T10:42:40;217.93;;;153.18;;
55136;SDS011;41032;47.818;-3.732;2023-02-21T10:45:09;214.38;;;151.32;;
55136;SDS011;41032;47.818;-3.732;2023-02-21T10:47:50;211.05;;;153.40;;
55136;SDS011;41032;47.818;-3.732;2023-02-21T10:53:27;215.07;;;153.00;;
55136;SDS011;41032;47.818;-3.732;2023-02-21T10:56:07;223.45;;;157.10;;
55136;SDS011;41032;47.818;-3.732;2023-02-21T10:59:03;219.65;;;153.85;;
55136;SDS011;41032;47.818;-3.732;2023-02-21T11:01:36;209.38;;;150.02;;
55136;SDS011;41032;47.818;-3.732;2023-02-21T11:04:29;213.52;;;151.30;;
55136;SDS011;41032;47.818;-3.732;2023-02-21T11:09:33;211.35;;;155.65;;
55136;SDS011;41032;47.818;-3.732;2023-02-21T11:12:05;200.02;;;147.80;;
55136;SDS011;41032;47.818;-3.732;2023-02-21T11:14:43;210.07;;;150.20;;
55136;SDS011;41032;47.818;-3.732;2023-02-21T11:17:31;217.43;;;157.45;;
55136;SDS011;41032;47.818;-3.732;2023-02-21T11:25:02;227.30;;;163.93;;
55136;SDS011;41032;47.818;-3.732;2023-02-21T11:27:33;221.82;;;154.73;;
55136;SDS011;41032;47.818;-3.732;2023-02-21T11:30:03;216.68;;;155.68;;
55136;SDS011;41032;47.818;-3.732;2023-02-21T11:32:47;231.77;;;162.93;;
55136;SDS011;41032;47.818;-3.732;2023-02-21T11:37:49;208.88;;;154.38;;
55136;SDS011;41032;47.818;-3.732;2023-02-21T11:43:09;212.75;;;155.38;;
55136;SDS011;41032;47.818;-3.732;2023-02-21T11:45:40;221.40;;;157.75;;
55136;SDS011;41032;47.818;-3.732;2023-02-21T11:48:26;222.85;;;160.32;;
55136;SDS011;41032;47.818;-3.732;2023-02-21T11:50:58;225.02;;;163.73;;
55136;SDS011;41032;47.818;-3.732;2023-02-21T11:53:41;227.88;;;161.68;;
55136;SDS011;41032;47.818;-3.732;2023-02-21T11:56:27;239.13;;;166.82;;
55136;SDS011;41032;47.818;-3.732;2023-02-21T12:04:55;233.82;;;167.00;;
55136;SDS011;41032;47.818;-3.732;2023-02-21T12:19:15;228.32;;;166.00;;
55136;SDS011;41032;47.818;-3.732;2023-02-21T12:27:10;255.02;;;187.93;;
55136;SDS011;41032;47.818;-3.732;2023-02-21T12:32:58;244.27;;;181.85;;
55136;SDS011;41032;47.818;-3.732;2023-02-21T12:40:53;250.48;;;182.10;;
55136;SDS011;41032;47.818;-3.732;2023-02-21T12:48:36;258.10;;;182.57;;
55136;SDS011;41032;47.818;-3.732;2023-02-21T12:51:12;245.50;;;179.38;;
55136;SDS011;41032;47.818;-3.732;2023-02-21T12:53:53;258.63;;;186.98;;
55136;SDS011;41032;47.818;-3.732;2023-02-21T12:56:35;246.13;;;178.60;;
55136;SDS011;41032;47.818;-3.732;2023-02-21T12:59:19;247.52;;;177.25;;
55136;SDS011;41032;47.818;-3.732;2023-02-21T13:04:28;246.18;;;175.43;;
55136;SDS011;41032;47.818;-3.732;2023-02-21T13:07:03;253.20;;;178.40;;
55136;SDS011;41032;47.818;-3.732;2023-02-21T13:12:08;239.52;;;171.50;;
55136;SDS011;41032;47.818;-3.732;2023-02-21T13:14:40;235.80;;;170.60;;
55136;SDS011;41032;47.818;-3.732;2023-02-21T13:17:14;231.45;;;170.80;;
55136;SDS011;41032;47.818;-3.732;2023-02-21T13:19:44;225.20;;;167.88;;
55136;SDS011;41032;47.818;-3.732;2023-02-21T13:28:27;245.40;;;179.65;;
55136;SDS011;41032;47.818;-3.732;2023-02-21T13:30:57;233.63;;;169.45;;
55136;SDS011;41032;47.818;-3.732;2023-02-21T13:33:29;252.55;;;175.60;;
55136;SDS011;41032;47.818;-3.732;2023-02-21T13:36:44;244.82;;;174.18;;
55136;SDS011;41032;47.818;-3.732;2023-02-21T13:38:56;249.13;;;175.57;;
55136;SDS011;41032;47.818;-3.732;2023-02-21T13:41:26;235.88;;;169.93;;
55136;SDS011;41032;47.818;-3.732;2023-02-21T13:43:55;238.20;;;171.20;;
55136;SDS011;41032;47.818;-3.732;2023-02-21T13:46:57;236.82;;;170.85;;
55136;SDS011;41032;47.818;-3.732;2023-02-21T13:57:43;230.02;;;169.70;;
55136;SDS011;41032;47.818;-3.732;2023-02-21T14:13:36;232.68;;;168.50;;
55136;SDS011;41032;47.818;-3.732;2023-02-21T14:21:45;237.68;;;170.65;;
55136;SDS011;41032;47.818;-3.732;2023-02-21T14:24:15;231.95;;;168.65;;
55136;SDS011;41032;47.818;-3.732;2023-02-21T14:26:49;237.90;;;174.20;;
55136;SDS011;41032;47.818;-3.732;2023-02-21T14:29:29;227.15;;;162.15;;
55136;SDS011;41032;47.818;-3.732;2023-02-21T14:34:31;226.57;;;165.80;;
55136;SDS011;41032;47.818;-3.732;2023-02-21T14:40:00;233.93;;;170.98;;
55136;SDS011;41032;47.818;-3.732;2023-02-21T14:42:45;243.13;;;170.88;;
55136;SDS011;41032;47.818;-3.732;2023-02-21T14:48:25;225.05;;;166.18;;
55136;SDS011;41032;47.818;-3.732;2023-02-21T15:04:47;238.27;;;164.32;;
55136;SDS011;41032;47.818;-3.732;2023-02-21T15:10:12;360.70;;;265.25;;
55136;SDS011;41032;47.818;-3.732;2023-02-21T15:12:44;361.25;;;269.27;;
55136;SDS011;41032;47.818;-3.732;2023-02-21T15:15:17;359.55;;;270.05;;
55136;SDS011;41032;47.818;-3.732;2023-02-21T15:17:55;343.95;;;254.30;;
55136;SDS011;41032;47.818;-3.732;2023-02-21T15:20:29;326.35;;;242.38;;
55136;SDS011;41032;47.818;-3.732;2023-02-21T15:23:00;314.67;;;235.27;;
55136;SDS011;41032;47.818;-3.732;2023-02-21T15:25:55;300.17;;;222.02;;
55136;SDS011;41032;47.818;-3.732;2023-02-21T15:28:26;293.13;;;216.07;;
55136;SDS011;41032;47.818;-3.732;2023-02-21T15:30:56;272.27;;;200.85;;
55136;SDS011;41032;47.818;-3.732;2023-02-21T15:33:35;275.77;;;201.18;;
55136;SDS011;41032;47.818;-3.732;2023-02-21T15:38:45;261.92;;;190.52;;
55136;SDS011;41032;47.818;-3.732;2023-02-21T15:43:55;232.48;;;169.77;;
55136;SDS011;41032;47.818;-3.732;2023-02-21T15:46:30;217.90;;;159.75;;
55136;SDS011;41032;47.818;-3.732;2023-02-21T15:49:01;213.70;;;151.38;;
55136;SDS011;41032;47.818;-3.732;2023-02-21T15:51:28;224.95;;;159.38;;
55136;SDS011;41032;47.818;-3.732;2023-02-21T15:54:06;223.98;;;158.35;;
55136;SDS011;41032;47.818;-3.732;2023-02-21T15:56:34;217.70;;;156.75;;
55136;SDS011;41032;47.818;-3.732;2023-02-21T15:59:45;216.32;;;152.77;;
55136;SDS011;41032;47.818;-3.732;2023-02-21T16:02:35;218.25;;;152.05;;
55136;SDS011;41032;47.818;-3.732;2023-02-21T16:04:41;218.20;;;158.50;;
55136;SDS011;41032;47.818;-3.732;2023-02-21T16:07:16;214.88;;;153.98;;
55136;SDS011;41032;47.818;-3.732;2023-02-21T16:09:48;221.02;;;157.68;;
55136;SDS011;41032;47.818;-3.732;2023-02-21T16:12:25;213.77;;;150.35;;
55136;SDS011;41032;47.818;-3.732;2023-02-21T16:14:57;202.73;;;149.07;;
55136;SDS011;41032;47.818;-3.732;2023-02-21T16:20:18;204.68;;;147.05;;
55136;SDS011;41032;47.818;-3.732;2023-02-21T16:22:45;207.40;;;148.82;;
55136;SDS011;41032;47.818;-3.732;2023-02-21T16:27:46;212.10;;;145.45;;
55136;SDS011;41032;47.818;-3.732;2023-02-21T16:30:17;190.90;;;138.63;;
55136;SDS011;41032;47.818;-3.732;2023-02-21T16:32:50;205.13;;;143.67;;
55136;SDS011;41032;47.818;-3.732;2023-02-21T16:35:20;203.60;;;140.82;;
55136;SDS011;41032;47.818;-3.732;2023-02-21T16:37:50;191.35;;;136.82;;
55136;SDS011;41032;47.818;-3.732;2023-02-21T16:40:30;196.48;;;137.65;;
55136;SDS011;41032;47.818;-3.732;2023-02-21T16:43:01;195.75;;;140.25;;
55136;SDS011;41032;47.818;-3.732;2023-02-21T16:45:29;186.55;;;133.60;;
55136;SDS011;41032;47.818;-3.732;2023-02-21T16:48:03;184.55;;;132.10;;
55136;SDS011;41032;47.818;-3.732;2023-02-21T16:50:35;184.95;;;129.57;;
55136;SDS011;41032;47.818;-3.732;2023-02-21T16:53:04;178.68;;;126.13;;
55136;SDS011;41032;47.818;-3.732;2023-02-21T16:55:32;187.68;;;131.98;;
55136;SDS011;41032;47.818;-3.732;2023-02-21T16:58:01;187.48;;;131.80;;
55136;SDS011;41032;47.818;-3.732;2023-02-21T17:00:31;176.90;;;132.48;;
55136;SDS011;41032;47.818;-3.732;2023-02-21T17:02:58;182.18;;;127.90;;
55136;SDS011;41032;47.818;-3.732;2023-02-21T17:05:26;180.27;;;130.48;;
55136;SDS011;41032;47.818;-3.732;2023-02-21T17:07:53;185.35;;;133.68;;
55136;SDS011;41032;47.818;-3.732;2023-02-21T17:10:23;174.85;;;128.93;;
55136;SDS011;41032;47.818;-3.732;2023-02-21T17:12:50;199.15;;;141.52;;
55136;SDS011;41032;47.818;-3.732;2023-02-21T17:15:20;202.10;;;143.07;;
55136;SDS011;41032;47.818;-3.732;2023-02-21T17:17:48;195.15;;;141.10;;
55136;SDS011;41032;47.818;-3.732;2023-02-21T17:20:16;192.95;;;140.35;;
55136;SDS011;41032;47.818;-3.732;2023-02-21T17:22:44;213.63;;;149.70;;
55136;SDS011;41032;47.818;-3.732;2023-02-21T17:25:13;214.75;;;153.60;;
55136;SDS011;41032;47.818;-3.732;2023-02-21T17:27:42;210.50;;;150.73;;
55136;SDS011;41032;47.818;-3.732;2023-02-21T17:30:11;214.10;;;154.77;;
55136;SDS011;41032;47.818;-3.732;2023-02-21T17:32:39;212.90;;;154.43;;
55136;SDS011;41032;47.818;-3.732;2023-02-21T17:35:09;230.45;;;159.07;;
55136;SDS011;41032;47.818;-3.732;2023-02-21T17:37:42;229.00;;;162.63;;
55136;SDS011;41032;47.818;-3.732;2023-02-21T17:40:12;226.82;;;159.15;;
55136;SDS011;41032;47.818;-3.732;2023-02-21T17:42:40;225.05;;;163.63;;
55136;SDS011;41032;47.818;-3.732;2023-02-21T17:45:07;221.88;;;157.18;;
55136;SDS011;41032;47.818;-3.732;2023-02-21T17:47:34;237.88;;;168.85;;
55136;SDS011;41032;47.818;-3.732;2023-02-21T17:50:02;226.23;;;162.40;;
55136;SDS011;41032;47.818;-3.732;2023-02-21T17:52:30;225.82;;;168.48;;
55136;SDS011;41032;47.818;-3.732;2023-02-21T17:54:57;244.18;;;170.57;;
55136;SDS011;41032;47.818;-3.732;2023-02-21T17:57:27;240.43;;;172.38;;
55136;SDS011;41032;47.818;-3.732;2023-02-21T17:59:59;233.98;;;173.63;;
55136;SDS011;41032;47.818;-3.732;2023-02-21T18:02:26;238.93;;;175.50;;
55136;SDS011;41032;47.818;-3.732;2023-02-21T18:04:53;240.65;;;174.50;;
55136;SDS011;41032;47.818;-3.732;2023-02-21T18:07:23;242.55;;;176.15;;
55136;SDS011;41032;47.818;-3.732;2023-02-21T18:09:52;251.02;;;181.07;;
55136;SDS011;41032;47.818;-3.732;2023-02-21T18:12:20;253.60;;;181.57;;
55136;SDS011;41032;47.818;-3.732;2023-02-21T18:14:47;245.88;;;181.70;;
55136;SDS011;41032;47.818;-3.732;2023-02-21T18:17:15;245.60;;;179.48;;
55136;SDS011;41032;47.818;-3.732;2023-02-21T18:19:43;245.25;;;181.93;;
55136;SDS011;41032;47.818;-3.732;2023-02-21T18:22:10;261.35;;;192.40;;
55136;SDS011;41032;47.818;-3.732;2023-02-21T18:24:38;266.23;;;194.00;;
55136;SDS011;41032;47.818;-3.732;2023-02-21T18:27:06;252.68;;;189.30;;
55136;SDS011;41032;47.818;-3.732;2023-02-21T18:29:35;262.30;;;191.82;;
55136;SDS011;41032;47.818;-3.732;2023-02-21T18:32:03;261.50;;;192.18;;
55136;SDS011;41032;47.818;-3.732;2023-02-21T18:34:31;261.17;;;192.30;;
55136;SDS011;41032;47.818;-3.732;2023-02-21T18:36:59;262.70;;;198.32;;
55136;SDS011;41032;47.818;-3.732;2023-02-21T18:39:28;263.35;;;194.30;;
55136;SDS011;41032;47.818;-3.732;2023-02-21T18:41:57;282.67;;;202.77;;
55136;SDS011;41032;47.818;-3.732;2023-02-21T18:44:25;270.83;;;197.30;;
55136;SDS011;41032;47.818;-3.732;2023-02-21T18:46:53;257.67;;;193.45;;
55136;SDS011;41032;47.818;-3.732;2023-02-21T18:49:21;277.83;;;201.55;;
55136;SDS011;41032;47.818;-3.732;2023-02-21T18:51:48;280.92;;;201.75;;
55136;SDS011;41032;47.818;-3.732;2023-02-21T18:54:16;270.70;;;201.07;;
55136;SDS011;41032;47.818;-3.732;2023-02-21T18:56:45;285.70;;;206.68;;
55136;SDS011;41032;47.818;-3.732;2023-02-21T18:59:15;281.27;;;201.77;;
55136;SDS011;41032;47.818;-3.732;2023-02-21T19:01:52;278.80;;;207.50;;
55136;SDS011;41032;47.818;-3.732;2023-02-21T19:04:20;285.45;;;207.90;;
55136;SDS011;41032;47.818;-3.732;2023-02-21T19:06:48;285.92;;;205.40;;
55136;SDS011;41032;47.818;-3.732;2023-02-21T19:09:15;274.95;;;205.82;;
55136;SDS011;41032;47.818;-3.732;2023-02-21T19:11:43;287.25;;;210.15;;
55136;SDS011;41032;47.818;-3.732;2023-02-21T19:14:10;288.60;;;206.13;;
55136;SDS011;41032;47.818;-3.732;2023-02-21T19:16:37;288.65;;;208.13;;
55136;SDS011;41032;47.818;-3.732;2023-02-21T19:19:05;277.13;;;204.55;;
55136;SDS011;41032;47.818;-3.732;2023-02-21T19:21:32;286.90;;;207.43;;
55136;SDS011;41032;47.818;-3.732;2023-02-21T19:24:00;281.83;;;208.07;;
55136;SDS011;41032;47.818;-3.732;2023-02-21T19:26:29;278.40;;;204.70;;
55136;SDS011;41032;47.818;-3.732;2023-02-21T19:28:56;268.65;;;204.80;;
55136;SDS011;41032;47.818;-3.732;2023-02-21T19:31:23;277.33;;;204.77;;
55136;SDS011;41032;47.818;-3.732;2023-02-21T19:33:50;279.15;;;205.75;;
55136;SDS011;41032;47.818;-3.732;2023-02-21T19:36:18;282.92;;;209.73;;
55136;SDS011;41032;47.818;-3.732;2023-02-21T19:38:47;277.33;;;208.93;;
55136;SDS011;41032;47.818;-3.732;2023-02-21T19:41:15;289.17;;;217.50;;
55136;SDS011;41032;47.818;-3.732;2023-02-21T19:43:42;292.63;;;217.63;;
55136;SDS011;41032;47.818;-3.732;2023-02-21T19:46:20;335.40;;;235.38;;
55136;SDS011;41032;47.818;-3.732;2023-02-21T19:48:49;354.23;;;244.98;;
55136;SDS011;41032;47.818;-3.732;2023-02-21T19:51:19;351.58;;;243.27;;
55136;SDS011;41032;47.818;-3.732;2023-02-21T19:53:48;342.02;;;237.95;;
55136;SDS011;41032;47.818;-3.732;2023-02-21T19:56:16;363.48;;;240.05;;
55136;SDS011;41032;47.818;-3.732;2023-02-21T19:58:44;344.52;;;234.43;;
55136;SDS011;41032;47.818;-3.732;2023-02-21T20:01:11;342.23;;;232.38;;
55136;SDS011;41032;47.818;-3.732;2023-02-21T20:03:38;326.13;;;229.38;;
55136;SDS011;41032;47.818;-3.732;2023-02-21T20:06:06;311.33;;;225.60;;
55136;SDS011;41032;47.818;-3.732;2023-02-21T20:08:34;328.25;;;227.15;;
55136;SDS011;41032;47.818;-3.732;2023-02-21T20:11:02;333.75;;;228.82;;
55136;SDS011;41032;47.818;-3.732;2023-02-21T20:13:29;317.80;;;225.98;;
55136;SDS011;41032;47.818;-3.732;2023-02-21T20:15:57;324.23;;;224.73;;
55136;SDS011;41032;47.818;-3.732;2023-02-21T20:18:24;330.08;;;226.85;;
55136;SDS011;41032;47.818;-3.732;2023-02-21T20:20:52;304.25;;;217.93;;
55136;SDS011;41032;47.818;-3.732;2023-02-21T20:23:20;318.88;;;224.82;;
55136;SDS011;41032;47.818;-3.732;2023-02-21T20:25:47;300.23;;;216.27;;
55136;SDS011;41032;47.818;-3.732;2023-02-21T20:28:15;298.90;;;216.02;;
55136;SDS011;41032;47.818;-3.732;2023-02-21T20:30:44;321.23;;;222.43;;
55136;SDS011;41032;47.818;-3.732;2023-02-21T20:33:12;305.08;;;218.70;;
55136;SDS011;41032;47.818;-3.732;2023-02-21T20:35:40;305.20;;;216.15;;
55136;SDS011;41032;47.818;-3.732;2023-02-21T20:38:08;288.48;;;211.48;;
55136;SDS011;41032;47.818;-3.732;2023-02-21T20:40:38;298.00;;;219.55;;
55136;SDS011;41032;47.818;-3.732;2023-02-21T20:43:05;291.40;;;211.18;;
55136;SDS011;41032;47.818;-3.732;2023-02-21T20:45:32;284.83;;;211.35;;
55136;SDS011;41032;47.818;-3.732;2023-02-21T20:47:59;311.80;;;215.45;;
55136;SDS011;41032;47.818;-3.732;2023-02-21T20:50:26;295.35;;;216.27;;
55136;SDS011;41032;47.818;-3.732;2023-02-21T20:52:54;282.23;;;209.48;;
55136;SDS011;41032;47.818;-3.732;2023-02-21T20:55:22;288.38;;;209.23;;
55136;SDS011;41032;47.818;-3.732;2023-02-21T20:57:50;289.00;;;209.48;;
55136;SDS011;41032;47.818;-3.732;2023-02-21T21:00:17;282.58;;;206.60;;
55136;SDS011;41032;47.818;-3.732;2023-02-21T21:02:49;294.58;;;211.40;;
55136;SDS011;41032;47.818;-3.732;2023-02-21T21:05:18;298.40;;;214.32;;
55136;SDS011;41032;47.818;-3.732;2023-02-21T21:07:45;302.23;;;213.57;;
55136;SDS011;41032;47.818;-3.732;2023-02-21T21:10:13;289.92;;;208.30;;
